sensor_id;sensor_type;location;lat;lon;timestamp;pressure;altitude;pressure_sealevel;temperature;humidity
73016;BME280;61893;50.074;14.440;2022-09-29T00:00:39;97093.66;;;6.58;87.18
73016;BME280;61893;50.074;14.440;2022-09-29T00:03:25;97089.59;;;6.21;87.72
73016;BME280;61893;50.074;14.440;2022-09-29T00:05:52;97095.53;;;6.23;88.30
73016;BME280;61893;50.074;14.440;2022-09-29T00:08:20;97096.06;;;6.35;87.39
73016;BME280;61893;50.074;14.440;2022-09-29T00:10:47;97097.91;;;6.34;87.53
73016;BME280;61893;50.074;14.440;2022-09-29T00:13:13;97096.41;;;6.31;87.69
73016;BME280;61893;50.074;14.440;2022-09-29T00:15:39;97093.38;;;6.10;88.42
73016;BME280;61893;50.074;14.440;2022-09-29T00:18:05;97093.25;;;6.28;87.79
73016;BME280;61893;50.074;14.440;2022-09-29T00:20:31;97091.97;;;5.98;89.04
73016;BME280;61893;50.074;14.440;2022-09-29T00:22:57;97090.69;;;6.02;88.72
73016;BME280;61893;50.074;14.440;2022-09-29T00:25:23;97093.16;;;6.03;89.56
73016;BME280;61893;50.074;14.440;2022-09-29T00:27:48;97087.97;;;6.28;88.32
73016;BME280;61893;50.074;14.440;2022-09-29T00:30:14;97093.84;;;6.05;88.44
73016;BME280;61893;50.074;14.440;2022-09-29T00:32:40;97089.72;;;6.11;89.42
73016;BME280;61893;50.074;14.440;2022-09-29T00:35:06;97084.16;;;6.22;88.44
73016;BME280;61893;50.074;14.440;2022-09-29T00:37:35;97087.06;;;6.03;89.13
73016;BME280;61893;50.074;14.440;2022-09-29T00:40:03;97089.88;;;6.01;88.97
73016;BME280;61893;50.074;14.440;2022-09-29T00:42:29;97090.34;;;5.97;88.97
73016;BME280;61893;50.074;14.440;2022-09-29T00:45:23;97092.31;;;5.95;89.93
73016;BME280;61893;50.074;14.440;2022-09-29T00:48:00;97096.06;;;5.92;89.24
73016;BME280;61893;50.074;14.440;2022-09-29T00:50:42;97101.56;;;5.99;89.52
73016;BME280;61893;50.074;14.440;2022-09-29T00:53:11;97093.69;;;6.07;88.83
73016;BME280;61893;50.074;14.440;2022-09-29T00:55:46;97097.66;;;6.11;88.27
73016;BME280;61893;50.074;14.440;2022-09-29T00:58:29;97104.41;;;6.05;89.05
73016;BME280;61893;50.074;14.440;2022-09-29T01:00:57;97109.41;;;5.91;89.95
73016;BME280;61893;50.074;14.440;2022-09-29T01:03:30;97103.63;;;6.13;89.37
73016;BME280;61893;50.074;14.440;2022-09-29T01:06:08;97098.75;;;6.00;89.04
73016;BME280;61893;50.074;14.440;2022-09-29T01:08:40;97098.13;;;6.06;89.32
73016;BME280;61893;50.074;14.440;2022-09-29T01:11:09;97101.94;;;6.12;87.95
73016;BME280;61893;50.074;14.440;2022-09-29T01:13:37;97102.19;;;5.93;89.13
73016;BME280;61893;50.074;14.440;2022-09-29T01:16:03;97106.59;;;5.84;89.67
73016;BME280;61893;50.074;14.440;2022-09-29T01:18:34;97111.69;;;5.85;90.10
73016;BME280;61893;50.074;14.440;2022-09-29T01:31:59;97111.06;;;5.92;89.66
73016;BME280;61893;50.074;14.440;2022-09-29T01:40:37;97113.47;;;5.77;88.87
73016;BME280;61893;50.074;14.440;2022-09-29T01:43:17;97116.66;;;5.88;88.66
73016;BME280;61893;50.074;14.440;2022-09-29T01:46:11;97108.78;;;5.62;89.76
73016;BME280;61893;50.074;14.440;2022-09-29T01:48:42;97120.47;;;5.60;90.32
73016;BME280;61893;50.074;14.440;2022-09-29T01:51:13;97119.06;;;5.74;90.25
73016;BME280;61893;50.074;14.440;2022-09-29T01:53:46;97125.94;;;5.93;89.11
73016;BME280;61893;50.074;14.440;2022-09-29T01:56:27;97113.16;;;5.80;89.10
73016;BME280;61893;50.074;14.440;2022-09-29T01:59:24;97111.34;;;5.80;88.74
73016;BME280;61893;50.074;14.440;2022-09-29T02:01:57;97113.28;;;5.70;89.45
73016;BME280;61893;50.074;14.440;2022-09-29T02:06:59;97120.91;;;5.47;90.35
73016;BME280;61893;50.074;14.440;2022-09-29T02:09:35;97115.75;;;5.46;90.42
73016;BME280;61893;50.074;14.440;2022-09-29T02:12:31;97119.75;;;5.50;89.89
73016;BME280;61893;50.074;14.440;2022-09-29T02:15:00;97112.72;;;5.58;90.25
73016;BME280;61893;50.074;14.440;2022-09-29T02:17:38;97121.97;;;5.62;89.83
73016;BME280;61893;50.074;14.440;2022-09-29T02:20:06;97121.59;;;5.57;89.96
73016;BME280;61893;50.074;14.440;2022-09-29T02:22:33;97115.28;;;5.76;89.76
73016;BME280;61893;50.074;14.440;2022-09-29T02:25:03;97115.38;;;5.58;89.39
73016;BME280;61893;50.074;14.440;2022-09-29T02:27:30;97110.88;;;5.85;89.29
73016;BME280;61893;50.074;14.440;2022-09-29T02:29:58;97107.09;;;5.87;88.56
73016;BME280;61893;50.074;14.440;2022-09-29T02:32:38;97116.31;;;5.83;88.51
73016;BME280;61893;50.074;14.440;2022-09-29T02:38:38;97137.97;;;5.61;88.85
73016;BME280;61893;50.074;14.440;2022-09-29T02:41:20;97137.84;;;5.45;89.87
73016;BME280;61893;50.074;14.440;2022-09-29T02:49:30;97133.25;;;5.47;89.37
73016;BME280;61893;50.074;14.440;2022-09-29T02:54:59;97136.34;;;5.42;89.65
73016;BME280;61893;50.074;14.440;2022-09-29T03:00:25;97153.47;;;5.38;90.94
73016;BME280;61893;50.074;14.440;2022-09-29T03:02:52;97151.41;;;5.24;90.69
73016;BME280;61893;50.074;14.440;2022-09-29T03:05:20;97147.66;;;5.34;90.60
73016;BME280;61893;50.074;14.440;2022-09-29T03:07:47;97151.63;;;5.56;90.45
73016;BME280;61893;50.074;14.440;2022-09-29T03:10:14;97154.88;;;5.50;90.21
73016;BME280;61893;50.074;14.440;2022-09-29T03:12:40;97154.50;;;5.71;89.41
73016;BME280;61893;50.074;14.440;2022-09-29T03:15:06;97153.31;;;5.65;88.99
73016;BME280;61893;50.074;14.440;2022-09-29T03:17:36;97157.09;;;5.37;89.52
73016;BME280;61893;50.074;14.440;2022-09-29T03:20:01;97149.78;;;5.31;90.06
73016;BME280;61893;50.074;14.440;2022-09-29T03:22:30;97151.63;;;5.56;90.04
73016;BME280;61893;50.074;14.440;2022-09-29T03:24:56;97149.50;;;5.60;88.82
73016;BME280;61893;50.074;14.440;2022-09-29T03:27:22;97144.88;;;5.36;90.35
73016;BME280;61893;50.074;14.440;2022-09-29T03:29:50;97149.59;;;5.50;89.92
73016;BME280;61893;50.074;14.440;2022-09-29T03:32:16;97144.41;;;5.40;89.83
73016;BME280;61893;50.074;14.440;2022-09-29T03:34:46;97147.84;;;5.15;90.91
73016;BME280;61893;50.074;14.440;2022-09-29T03:37:12;97149.19;;;5.19;90.65
73016;BME280;61893;50.074;14.440;2022-09-29T03:39:38;97143.25;;;5.17;91.38
73016;BME280;61893;50.074;14.440;2022-09-29T03:42:09;97148.53;;;5.17;91.35
73016;BME280;61893;50.074;14.440;2022-09-29T03:44:35;97148.59;;;5.25;90.29
73016;BME280;61893;50.074;14.440;2022-09-29T03:47:00;97149.84;;;5.39;89.93
73016;BME280;61893;50.074;14.440;2022-09-29T03:49:26;97142.63;;;5.23;89.84
73016;BME280;61893;50.074;14.440;2022-09-29T03:52:06;97146.84;;;5.34;90.53
73016;BME280;61893;50.074;14.440;2022-09-29T03:54:50;97160.34;;;5.31;89.90
73016;BME280;61893;50.074;14.440;2022-09-29T03:57:22;97157.13;;;5.19;90.03
73016;BME280;61893;50.074;14.440;2022-09-29T03:59:50;97157.63;;;5.23;90.50
73016;BME280;61893;50.074;14.440;2022-09-29T04:02:25;97163.59;;;5.07;90.82
73016;BME280;61893;50.074;14.440;2022-09-29T04:04:58;97158.63;;;5.04;90.89
73016;BME280;61893;50.074;14.440;2022-09-29T04:07:26;97162.69;;;5.16;90.13
73016;BME280;61893;50.074;14.440;2022-09-29T04:09:52;97161.84;;;4.97;90.78
73016;BME280;61893;50.074;14.440;2022-09-29T04:12:34;97156.44;;;4.99;90.80
73016;BME280;61893;50.074;14.440;2022-09-29T04:15:00;97158.91;;;5.36;90.12
73016;BME280;61893;50.074;14.440;2022-09-29T04:17:25;97155.16;;;5.21;90.14
73016;BME280;61893;50.074;14.440;2022-09-29T04:19:52;97154.25;;;5.30;89.93
73016;BME280;61893;50.074;14.440;2022-09-29T04:22:17;97160.44;;;5.21;90.43
73016;BME280;61893;50.074;14.440;2022-09-29T04:24:44;97167.13;;;5.33;90.36
73016;BME280;61893;50.074;14.440;2022-09-29T04:27:10;97164.50;;;5.15;90.27
73016;BME280;61893;50.074;14.440;2022-09-29T04:29:50;97159.13;;;5.25;90.53
73016;BME280;61893;50.074;14.440;2022-09-29T04:32:38;97168.09;;;5.32;90.12
73016;BME280;61893;50.074;14.440;2022-09-29T04:35:07;97165.19;;;5.43;89.21
73016;BME280;61893;50.074;14.440;2022-09-29T04:37:33;97168.44;;;5.37;88.65
73016;BME280;61893;50.074;14.440;2022-09-29T04:39:59;97172.13;;;5.18;89.40
73016;BME280;61893;50.074;14.440;2022-09-29T04:42:25;97170.75;;;5.32;90.00
73016;BME280;61893;50.074;14.440;2022-09-29T04:44:50;97170.72;;;5.50;89.08
73016;BME280;61893;50.074;14.440;2022-09-29T04:47:19;97170.09;;;5.56;88.92
73016;BME280;61893;50.074;14.440;2022-09-29T04:49:44;97168.25;;;5.31;89.32
73016;BME280;61893;50.074;14.440;2022-09-29T04:52:11;97175.22;;;5.40;89.65
73016;BME280;61893;50.074;14.440;2022-09-29T04:54:50;97172.00;;;5.28;89.92
73016;BME280;61893;50.074;14.440;2022-09-29T04:57:17;97177.28;;;5.28;89.71
73016;BME280;61893;50.074;14.440;2022-09-29T04:59:46;97173.84;;;5.10;89.98
73016;BME280;61893;50.074;14.440;2022-09-29T05:02:21;97177.75;;;5.06;90.60
73016;BME280;61893;50.074;14.440;2022-09-29T05:04:49;97181.97;;;5.16;89.79
73016;BME280;61893;50.074;14.440;2022-09-29T05:07:15;97177.34;;;5.36;90.14
73016;BME280;61893;50.074;14.440;2022-09-29T05:09:40;97181.34;;;5.40;89.35
73016;BME280;61893;50.074;14.440;2022-09-29T05:12:06;97171.25;;;5.36;90.22
73016;BME280;61893;50.074;14.440;2022-09-29T05:14:32;97177.81;;;5.32;89.44
73016;BME280;61893;50.074;14.440;2022-09-29T05:16:59;97175.53;;;5.37;90.21
73016;BME280;61893;50.074;14.440;2022-09-29T05:19:26;97181.94;;;5.34;90.27
73016;BME280;61893;50.074;14.440;2022-09-29T05:21:52;97183.97;;;5.40;89.71
73016;BME280;61893;50.074;14.440;2022-09-29T05:24:18;97187.50;;;5.49;89.71
73016;BME280;61893;50.074;14.440;2022-09-29T05:26:44;97191.94;;;5.49;89.02
73016;BME280;61893;50.074;14.440;2022-09-29T05:29:09;97184.16;;;5.65;88.86
73016;BME280;61893;50.074;14.440;2022-09-29T05:31:35;97181.28;;;5.32;88.95
73016;BME280;61893;50.074;14.440;2022-09-29T05:34:01;97191.13;;;5.48;88.88
73016;BME280;61893;50.074;14.440;2022-09-29T05:36:27;97196.88;;;5.26;89.71
73016;BME280;61893;50.074;14.440;2022-09-29T05:38:52;97189.56;;;5.19;89.66
73016;BME280;61893;50.074;14.440;2022-09-29T05:41:18;97190.94;;;5.06;90.81
73016;BME280;61893;50.074;14.440;2022-09-29T05:43:48;97195.53;;;5.04;90.37
73016;BME280;61893;50.074;14.440;2022-09-29T05:46:14;97199.31;;;5.19;89.98
73016;BME280;61893;50.074;14.440;2022-09-29T05:48:42;97198.78;;;5.15;90.04
73016;BME280;61893;50.074;14.440;2022-09-29T05:51:13;97200.81;;;5.04;90.43
73016;BME280;61893;50.074;14.440;2022-09-29T05:53:39;97202.09;;;5.00;90.61
73016;BME280;61893;50.074;14.440;2022-09-29T05:56:11;97203.47;;;5.04;90.82
73016;BME280;61893;50.074;14.440;2022-09-29T05:58:37;97205.31;;;5.11;90.35
73016;BME280;61893;50.074;14.440;2022-09-29T06:01:24;97199.63;;;4.98;91.29
73016;BME280;61893;50.074;14.440;2022-09-29T06:03:54;97209.47;;;4.96;91.22
73016;BME280;61893;50.074;14.440;2022-09-29T06:06:25;97212.63;;;5.17;90.83
73016;BME280;61893;50.074;14.440;2022-09-29T06:09:03;97212.50;;;5.01;89.95
73016;BME280;61893;50.074;14.440;2022-09-29T06:11:32;97213.22;;;4.93;90.64
73016;BME280;61893;50.074;14.440;2022-09-29T06:14:08;97217.38;;;5.14;90.75
73016;BME280;61893;50.074;14.440;2022-09-29T06:16:53;97224.97;;;5.35;90.16
73016;BME280;61893;50.074;14.440;2022-09-29T06:19:20;97221.44;;;5.44;90.13
73016;BME280;61893;50.074;14.440;2022-09-29T06:21:46;97218.06;;;5.34;90.26
73016;BME280;61893;50.074;14.440;2022-09-29T06:24:30;97218.06;;;5.16;90.94
73016;BME280;61893;50.074;14.440;2022-09-29T06:26:58;97223.56;;;5.23;90.30
73016;BME280;61893;50.074;14.440;2022-09-29T06:29:30;97224.47;;;5.13;89.94
73016;BME280;61893;50.074;14.440;2022-09-29T06:31:56;97223.75;;;5.65;89.70
73016;BME280;61893;50.074;14.440;2022-09-29T06:34:25;97227.19;;;5.22;89.96
73016;BME280;61893;50.074;14.440;2022-09-29T06:36:52;97224.53;;;5.22;90.08
73016;BME280;61893;50.074;14.440;2022-09-29T06:39:36;97229.72;;;5.49;89.61
73016;BME280;61893;50.074;14.440;2022-09-29T06:42:05;97229.59;;;5.33;89.86
73016;BME280;61893;50.074;14.440;2022-09-29T06:44:38;97232.00;;;5.44;90.21
73016;BME280;61893;50.074;14.440;2022-09-29T06:47:04;97227.22;;;5.92;89.20
73016;BME280;61893;50.074;14.440;2022-09-29T06:49:32;97219.63;;;5.88;88.12
73016;BME280;61893;50.074;14.440;2022-09-29T06:52:01;97223.56;;;5.84;89.20
73016;BME280;61893;50.074;14.440;2022-09-29T06:54:29;97213.81;;;5.85;88.48
73016;BME280;61893;50.074;14.440;2022-09-29T06:57:03;97225.81;;;5.53;89.49
73016;BME280;61893;50.074;14.440;2022-09-29T07:00:10;97232.13;;;5.42;89.61
73016;BME280;61893;50.074;14.440;2022-09-29T07:02:50;97229.88;;;5.48;90.09
73016;BME280;61893;50.074;14.440;2022-09-29T07:05:48;97232.25;;;5.77;89.65
73016;BME280;61893;50.074;14.440;2022-09-29T07:08:55;97227.31;;;6.00;89.09
73016;BME280;61893;50.074;14.440;2022-09-29T07:11:38;97231.31;;;6.04;88.19
73016;BME280;61893;50.074;14.440;2022-09-29T07:14:15;97231.44;;;6.02;87.75
73016;BME280;61893;50.074;14.440;2022-09-29T07:16:46;97227.25;;;6.18;87.92
73016;BME280;61893;50.074;14.440;2022-09-29T07:19:31;97220.09;;;6.36;86.66
73016;BME280;61893;50.074;14.440;2022-09-29T07:22:00;97225.09;;;6.47;87.10
73016;BME280;61893;50.074;14.440;2022-09-29T07:24:26;97221.63;;;6.55;86.79
73016;BME280;61893;50.074;14.440;2022-09-29T07:26:52;97222.44;;;6.47;86.50
73016;BME280;61893;50.074;14.440;2022-09-29T07:29:20;97222.88;;;6.35;86.95
73016;BME280;61893;50.074;14.440;2022-09-29T07:31:46;97213.34;;;6.42;87.18
73016;BME280;61893;50.074;14.440;2022-09-29T07:34:13;97212.81;;;6.72;86.40
73016;BME280;61893;50.074;14.440;2022-09-29T07:36:43;97222.91;;;6.85;85.60
73016;BME280;61893;50.074;14.440;2022-09-29T07:39:18;97230.06;;;7.01;85.85
73016;BME280;61893;50.074;14.440;2022-09-29T07:41:45;97225.06;;;6.82;86.59
73016;BME280;61893;50.074;14.440;2022-09-29T07:44:17;97237.31;;;6.91;85.58
73016;BME280;61893;50.074;14.440;2022-09-29T07:46:49;97239.75;;;6.76;86.19
73016;BME280;61893;50.074;14.440;2022-09-29T07:49:20;97240.13;;;6.97;85.58
73016;BME280;61893;50.074;14.440;2022-09-29T07:51:46;97245.56;;;6.88;85.90
73016;BME280;61893;50.074;14.440;2022-09-29T07:54:13;97246.03;;;6.83;86.28
73016;BME280;61893;50.074;14.440;2022-09-29T07:56:39;97244.25;;;7.00;86.05
73016;BME280;61893;50.074;14.440;2022-09-29T07:59:05;97245.28;;;7.23;85.93
73016;BME280;61893;50.074;14.440;2022-09-29T08:01:32;97241.31;;;7.11;85.88
73016;BME280;61893;50.074;14.440;2022-09-29T08:03:58;97238.38;;;7.22;85.28
73016;BME280;61893;50.074;14.440;2022-09-29T08:06:25;97243.47;;;7.08;85.58
73016;BME280;61893;50.074;14.440;2022-09-29T08:08:51;97249.13;;;7.29;84.59
73016;BME280;61893;50.074;14.440;2022-09-29T08:11:19;97251.78;;;7.54;84.47
73016;BME280;61893;50.074;14.440;2022-09-29T08:13:46;97252.44;;;7.31;84.79
73016;BME280;61893;50.074;14.440;2022-09-29T08:16:14;97255.94;;;7.48;84.32
73016;BME280;61893;50.074;14.440;2022-09-29T08:18:40;97254.28;;;7.63;83.85
73016;BME280;61893;50.074;14.440;2022-09-29T08:21:07;97251.31;;;7.58;83.91
73016;BME280;61893;50.074;14.440;2022-09-29T08:23:46;97257.59;;;7.57;84.05
73016;BME280;61893;50.074;14.440;2022-09-29T08:26:17;97262.06;;;7.73;83.71
73016;BME280;61893;50.074;14.440;2022-09-29T08:28:44;97263.53;;;7.92;82.77
73016;BME280;61893;50.074;14.440;2022-09-29T08:31:20;97266.19;;;7.92;82.72
73016;BME280;61893;50.074;14.440;2022-09-29T08:34:15;97271.47;;;8.00;82.62
73016;BME280;61893;50.074;14.440;2022-09-29T08:36:44;97270.50;;;7.85;83.17
73016;BME280;61893;50.074;14.440;2022-09-29T08:39:21;97280.56;;;8.22;81.51
73016;BME280;61893;50.074;14.440;2022-09-29T08:44:57;97279.22;;;8.26;80.95
73016;BME280;61893;50.074;14.440;2022-09-29T08:52:43;97287.56;;;8.79;79.60
73016;BME280;61893;50.074;14.440;2022-09-29T08:55:38;97292.56;;;8.74;79.00
73016;BME280;61893;50.074;14.440;2022-09-29T08:58:25;97293.44;;;8.97;78.28
73016;BME280;61893;50.074;14.440;2022-09-29T09:01:20;97294.69;;;9.18;76.89
73016;BME280;61893;50.074;14.440;2022-09-29T09:10:02;97291.56;;;9.68;74.44
73016;BME280;61893;50.074;14.440;2022-09-29T09:12:55;97296.34;;;9.73;74.73
73016;BME280;61893;50.074;14.440;2022-09-29T09:26:16;97301.63;;;10.19;72.51
73016;BME280;61893;50.074;14.440;2022-09-29T09:28:54;97293.91;;;10.24;71.36
73016;BME280;61893;50.074;14.440;2022-09-29T09:31:41;97301.41;;;10.58;70.06
73016;BME280;61893;50.074;14.440;2022-09-29T09:37:50;97308.19;;;10.61;70.03
73016;BME280;61893;50.074;14.440;2022-09-29T09:40:39;97301.06;;;10.62;69.99
73016;BME280;61893;50.074;14.440;2022-09-29T09:44:04;97300.13;;;10.54;70.44
73016;BME280;61893;50.074;14.440;2022-09-29T09:47:50;97296.19;;;10.50;70.13
73016;BME280;61893;50.074;14.440;2022-09-29T09:50:27;97300.59;;;10.88;69.21
73016;BME280;61893;50.074;14.440;2022-09-29T09:53:04;97309.41;;;11.03;68.35
73016;BME280;61893;50.074;14.440;2022-09-29T09:55:48;97307.00;;;11.08;68.23
73016;BME280;61893;50.074;14.440;2022-09-29T10:01:32;97309.81;;;11.36;66.11
73016;BME280;61893;50.074;14.440;2022-09-29T10:04:58;97306.50;;;11.70;64.26
73016;BME280;61893;50.074;14.440;2022-09-29T10:11:34;97297.16;;;11.81;62.68
73016;BME280;61893;50.074;14.440;2022-09-29T10:14:39;97299.00;;;12.24;62.19
73016;BME280;61893;50.074;14.440;2022-09-29T10:18:36;97306.34;;;11.57;58.00
73016;BME280;61893;50.074;14.440;2022-09-29T10:21:51;97304.72;;;12.21;58.67
73016;BME280;61893;50.074;14.440;2022-09-29T10:24:39;97307.38;;;12.21;58.25
73016;BME280;61893;50.074;14.440;2022-09-29T10:27:34;97306.97;;;12.45;57.79
73016;BME280;61893;50.074;14.440;2022-09-29T10:32:56;97291.41;;;12.83;56.07
73016;BME280;61893;50.074;14.440;2022-09-29T10:36:09;97284.69;;;12.94;55.35
73016;BME280;61893;50.074;14.440;2022-09-29T10:38:50;97294.56;;;13.00;56.27
73016;BME280;61893;50.074;14.440;2022-09-29T10:41:49;97299.53;;;12.69;55.31
73016;BME280;61893;50.074;14.440;2022-09-29T10:45:09;97303.53;;;13.27;53.53
73016;BME280;61893;50.074;14.440;2022-09-29T10:50:29;97299.34;;;13.60;53.39
73016;BME280;61893;50.074;14.440;2022-09-29T10:52:58;97294.19;;;13.65;52.79
73016;BME280;61893;50.074;14.440;2022-09-29T10:56:17;97299.63;;;14.11;52.16
73016;BME280;61893;50.074;14.440;2022-09-29T10:59:23;97302.69;;;13.88;51.93
73016;BME280;61893;50.074;14.440;2022-09-29T11:02:30;97306.63;;;14.06;52.70
73016;BME280;61893;50.074;14.440;2022-09-29T11:05:23;97308.22;;;13.93;51.62
73016;BME280;61893;50.074;14.440;2022-09-29T11:08:10;97308.66;;;14.04;52.27
73016;BME280;61893;50.074;14.440;2022-09-29T11:10:37;97313.75;;;13.72;52.21
73016;BME280;61893;50.074;14.440;2022-09-29T11:15:45;97292.22;;;14.53;50.26
73016;BME280;61893;50.074;14.440;2022-09-29T11:18:31;97295.59;;;15.07;49.27
73016;BME280;61893;50.074;14.440;2022-09-29T11:24:11;97280.31;;;15.21;50.16
73016;BME280;61893;50.074;14.440;2022-09-29T11:27:03;97284.34;;;15.82;45.69
73016;BME280;61893;50.074;14.440;2022-09-29T11:29:44;97287.59;;;15.90;45.67
73016;BME280;61893;50.074;14.440;2022-09-29T11:35:32;97290.69;;;16.69;43.79
73016;BME280;61893;50.074;14.440;2022-09-29T11:43:49;97292.44;;;17.00;40.83
73016;BME280;61893;50.074;14.440;2022-09-29T11:52:49;97293.00;;;14.87;43.92
73016;BME280;61893;50.074;14.440;2022-09-29T12:01:15;97277.38;;;14.44;44.52
73016;BME280;61893;50.074;14.440;2022-09-29T12:07:13;97277.38;;;14.71;43.91
73016;BME280;61893;50.074;14.440;2022-09-29T12:16:05;97283.50;;;17.06;37.58
73016;BME280;61893;50.074;14.440;2022-09-29T12:19:10;97284.16;;;16.58;38.54
73016;BME280;61893;50.074;14.440;2022-09-29T12:21:40;97279.75;;;17.26;37.18
73016;BME280;61893;50.074;14.440;2022-09-29T12:27:08;97272.75;;;19.09;35.95
73016;BME280;61893;50.074;14.440;2022-09-29T12:30:24;97268.91;;;18.46;36.39
73016;BME280;61893;50.074;14.440;2022-09-29T12:35:56;97271.03;;;18.92;35.04
73016;BME280;61893;50.074;14.440;2022-09-29T12:38:36;97272.25;;;17.46;36.91
73016;BME280;61893;50.074;14.440;2022-09-29T12:46:31;97275.91;;;16.60;40.08
73016;BME280;61893;50.074;14.440;2022-09-29T12:49:21;97274.28;;;16.09;41.68
73016;BME280;61893;50.074;14.440;2022-09-29T12:51:50;97277.63;;;16.73;39.87
73016;BME280;61893;50.074;14.440;2022-09-29T12:54:36;97274.16;;;15.97;42.20
73016;BME280;61893;50.074;14.440;2022-09-29T12:57:09;97280.50;;;15.26;43.43
73016;BME280;61893;50.074;14.440;2022-09-29T12:59:40;97274.81;;;15.54;43.45
73016;BME280;61893;50.074;14.440;2022-09-29T13:10:57;97266.69;;;14.57;45.88
73016;BME280;61893;50.074;14.440;2022-09-29T13:13:42;97273.50;;;15.63;43.91
73016;BME280;61893;50.074;14.440;2022-09-29T13:19:31;97285.72;;;15.07;44.55
73016;BME280;61893;50.074;14.440;2022-09-29T13:22:35;97277.66;;;15.14;44.71
73016;BME280;61893;50.074;14.440;2022-09-29T13:27:54;97283.00;;;15.59;44.41
73016;BME280;61893;50.074;14.440;2022-09-29T13:30:25;97279.78;;;15.44;45.04
73016;BME280;61893;50.074;14.440;2022-09-29T13:35:38;97287.34;;;16.24;42.66
73016;BME280;61893;50.074;14.440;2022-09-29T13:38:10;97290.41;;;16.27;41.29
73016;BME280;61893;50.074;14.440;2022-09-29T13:49:03;97280.31;;;17.28;40.40
73016;BME280;61893;50.074;14.440;2022-09-29T13:51:44;97277.09;;;16.39;42.78
73016;BME280;61893;50.074;14.440;2022-09-29T14:02:42;97290.88;;;16.67;43.71
73016;BME280;61893;50.074;14.440;2022-09-29T14:08:12;97291.16;;;17.70;41.28
73016;BME280;61893;50.074;14.440;2022-09-29T14:10:50;97293.53;;;17.11;41.76
73016;BME280;61893;50.074;14.440;2022-09-29T14:18:46;97288.38;;;15.97;46.78
73016;BME280;61893;50.074;14.440;2022-09-29T14:32:36;97301.72;;;17.53;42.38
73016;BME280;61893;50.074;14.440;2022-09-29T14:38:05;97301.81;;;17.46;42.60
73016;BME280;61893;50.074;14.440;2022-09-29T14:40:33;97300.56;;;17.30;41.73
73016;BME280;61893;50.074;14.440;2022-09-29T14:43:04;97302.63;;;15.98;44.77
73016;BME280;61893;50.074;14.440;2022-09-29T14:45:43;97307.84;;;15.86;45.58
73016;BME280;61893;50.074;14.440;2022-09-29T14:52:13;97325.16;;;14.74;48.57
73016;BME280;61893;50.074;14.440;2022-09-29T14:55:21;97329.47;;;14.81;48.94
73016;BME280;61893;50.074;14.440;2022-09-29T15:03:22;97334.63;;;14.23;51.33
73016;BME280;61893;50.074;14.440;2022-09-29T15:08:34;97332.53;;;13.92;50.97
73016;BME280;61893;50.074;14.440;2022-09-29T15:11:01;97338.31;;;14.35;50.49
73016;BME280;61893;50.074;14.440;2022-09-29T15:13:30;97335.03;;;14.67;49.39
73016;BME280;61893;50.074;14.440;2022-09-29T15:16:10;97335.25;;;14.72;48.87
73016;BME280;61893;50.074;14.440;2022-09-29T15:21:58;97333.00;;;14.55;49.37
73016;BME280;61893;50.074;14.440;2022-09-29T15:27:11;97347.50;;;13.80;52.00
73016;BME280;61893;50.074;14.440;2022-09-29T15:29:38;97350.00;;;14.01;51.38
73016;BME280;61893;50.074;14.440;2022-09-29T15:32:03;97349.56;;;13.84;51.22
73016;BME280;61893;50.074;14.440;2022-09-29T15:34:38;97358.28;;;13.45;53.15
73016;BME280;61893;50.074;14.440;2022-09-29T15:37:04;97366.03;;;13.33;53.31
73016;BME280;61893;50.074;14.440;2022-09-29T15:42:01;97364.38;;;13.32;52.86
73016;BME280;61893;50.074;14.440;2022-09-29T15:44:28;97365.94;;;13.20;54.09
73016;BME280;61893;50.074;14.440;2022-09-29T15:46:57;97373.53;;;13.16;54.05
73016;BME280;61893;50.074;14.440;2022-09-29T15:49:25;97373.19;;;12.91;54.53
73016;BME280;61893;50.074;14.440;2022-09-29T15:51:58;97379.44;;;13.05;54.37
73016;BME280;61893;50.074;14.440;2022-09-29T15:54:28;97385.50;;;12.92;55.53
73016;BME280;61893;50.074;14.440;2022-09-29T15:56:56;97388.53;;;12.82;54.94
73016;BME280;61893;50.074;14.440;2022-09-29T15:59:43;97391.03;;;12.91;55.69
73016;BME280;61893;50.074;14.440;2022-09-29T16:02:20;97400.94;;;12.69;55.83
73016;BME280;61893;50.074;14.440;2022-09-29T16:04:51;97411.00;;;12.73;55.98
73016;BME280;61893;50.074;14.440;2022-09-29T16:07:24;97415.09;;;12.69;56.25
73016;BME280;61893;50.074;14.440;2022-09-29T16:09:57;97418.69;;;12.55;56.79
73016;BME280;61893;50.074;14.440;2022-09-29T16:12:24;97421.91;;;12.50;57.04
73016;BME280;61893;50.074;14.440;2022-09-29T16:14:55;97428.78;;;12.38;57.34
73016;BME280;61893;50.074;14.440;2022-09-29T16:17:23;97436.13;;;12.36;57.51
73016;BME280;61893;50.074;14.440;2022-09-29T16:20:02;97436.03;;;12.23;58.01
73016;BME280;61893;50.074;14.440;2022-09-29T16:22:28;97432.22;;;12.32;58.05
73016;BME280;61893;50.074;14.440;2022-09-29T16:25:09;97431.78;;;12.28;58.09
73016;BME280;61893;50.074;14.440;2022-09-29T16:27:58;97429.13;;;12.28;58.25
73016;BME280;61893;50.074;14.440;2022-09-29T16:30:34;97433.31;;;12.01;59.27
73016;BME280;61893;50.074;14.440;2022-09-29T16:33:19;97427.94;;;12.16;59.12
73016;BME280;61893;50.074;14.440;2022-09-29T16:38:43;97433.44;;;11.93;60.31
73016;BME280;61893;50.074;14.440;2022-09-29T16:41:35;97434.19;;;11.87;60.73
73016;BME280;61893;50.074;14.440;2022-09-29T16:46:45;97429.22;;;11.84;61.08
73016;BME280;61893;50.074;14.440;2022-09-29T16:49:35;97432.16;;;11.89;60.95
73016;BME280;61893;50.074;14.440;2022-09-29T17:00:21;97433.03;;;11.60;62.84
73016;BME280;61893;50.074;14.440;2022-09-29T17:02:51;97438.81;;;11.63;62.86
73016;BME280;61893;50.074;14.440;2022-09-29T17:05:17;97432.81;;;11.61;62.85
73016;BME280;61893;50.074;14.440;2022-09-29T17:07:43;97434.16;;;11.50;63.06
73016;BME280;61893;50.074;14.440;2022-09-29T17:10:18;97435.50;;;11.46;63.50
73016;BME280;61893;50.074;14.440;2022-09-29T17:13:00;97435.34;;;11.48;63.28